sensor_id;sensor_type;location;lat;lon;timestamp;noise_LAeq;noise_LA_min;noise_LA_max;noise_LA01;noise_LA95
70077;Laerm;57448;51.490;5.436;2022-11-15T00:02:23;38.22;34.68;46.49;;
70077;Laerm;57448;51.490;5.436;2022-11-15T00:05:13;37.33;33.80;43.98;;
70077;Laerm;57448;51.490;5.436;2022-11-15T00:08:04;37.29;34.32;42.83;;
70077;Laerm;57448;51.490;5.436;2022-11-15T00:10:55;36.23;33.44;44.66;;
70077;Laerm;57448;51.490;5.436;2022-11-15T00:13:46;37.30;34.34;43.65;;
70077;Laerm;57448;51.490;5.436;2022-11-15T00:16:37;37.86;34.48;42.22;;
70077;Laerm;57448;51.490;5.436;2022-11-15T00:19:29;38.69;34.34;45.43;;
70077;Laerm;57448;51.490;5.436;2022-11-15T00:22:19;37.29;33.08;44.52;;
70077;Laerm;57448;51.490;5.436;2022-11-15T00:25:10;37.24;33.96;43.84;;
70077;Laerm;57448;51.490;5.436;2022-11-15T00:28:01;39.98;34.28;46.68;;
70077;Laerm;57448;51.490;5.436;2022-11-15T00:30:51;38.31;33.80;44.19;;
70077;Laerm;57448;51.490;5.436;2022-11-15T00:33:43;36.97;34.01;42.59;;
70077;Laerm;57448;51.490;5.436;2022-11-15T00:36:35;36.34;33.30;43.75;;
70077;Laerm;57448;51.490;5.436;2022-11-15T00:39:25;36.62;33.25;44.82;;
70077;Laerm;57448;51.490;5.436;2022-11-15T00:42:16;36.81;33.82;44.91;;
70077;Laerm;57448;51.490;5.436;2022-11-15T00:45:07;37.65;34.63;41.80;;
70077;Laerm;57448;51.490;5.436;2022-11-15T00:47:58;38.75;35.29;45.98;;
70077;Laerm;57448;51.490;5.436;2022-11-15T00:50:49;37.55;34.43;42.23;;
70077;Laerm;57448;51.490;5.436;2022-11-15T00:53:41;38.68;35.79;45.88;;
70077;Laerm;57448;51.490;5.436;2022-11-15T00:56:32;42.29;36.97;49.90;;
70077;Laerm;57448;51.490;5.436;2022-11-15T00:59:22;38.01;34.31;46.32;;
70077;Laerm;57448;51.490;5.436;2022-11-15T01:02:13;37.17;33.87;51.81;;
70077;Laerm;57448;51.490;5.436;2022-11-15T01:05:04;37.53;33.76;45.39;;
70077;Laerm;57448;51.490;5.436;2022-11-15T01:07:55;37.69;33.72;46.41;;
70077;Laerm;57448;51.490;5.436;2022-11-15T01:10:47;37.08;33.92;41.38;;
70077;Laerm;57448;51.490;5.436;2022-11-15T01:13:38;37.07;33.79;47.50;;
70077;Laerm;57448;51.490;5.436;2022-11-15T01:16:29;36.92;33.62;42.26;;
70077;Laerm;57448;51.490;5.436;2022-11-15T01:19:20;36.78;33.83;47.77;;
70077;Laerm;57448;51.490;5.436;2022-11-15T01:22:11;36.00;33.24;43.82;;
70077;Laerm;57448;51.490;5.436;2022-11-15T01:25:02;37.11;33.77;42.44;;
70077;Laerm;57448;51.490;5.436;2022-11-15T01:27:54;38.55;33.59;46.27;;
70077;Laerm;57448;51.490;5.436;2022-11-15T01:30:45;36.37;33.39;41.17;;
70077;Laerm;57448;51.490;5.436;2022-11-15T01:33:35;36.01;33.02;43.64;;
70077;Laerm;57448;51.490;5.436;2022-11-15T01:36:26;36.74;33.79;40.83;;
70077;Laerm;57448;51.490;5.436;2022-11-15T01:39:17;36.83;33.41;47.14;;
70077;Laerm;57448;51.490;5.436;2022-11-15T01:42:09;36.56;33.24;43.37;;
70077;Laerm;57448;51.490;5.436;2022-11-15T01:45:04;35.86;32.99;44.73;;
70077;Laerm;57448;51.490;5.436;2022-11-15T01:47:54;36.45;32.65;46.69;;
70077;Laerm;57448;51.490;5.436;2022-11-15T01:50:45;37.00;34.14;47.17;;
70077;Laerm;57448;51.490;5.436;2022-11-15T01:53:36;35.18;32.68;39.78;;
70077;Laerm;57448;51.490;5.436;2022-11-15T01:56:30;36.45;33.08;40.43;;
70077;Laerm;57448;51.490;5.436;2022-11-15T01:59:22;36.19;33.47;43.91;;
70077;Laerm;57448;51.490;5.436;2022-11-15T02:02:14;36.49;32.98;43.17;;
70077;Laerm;57448;51.490;5.436;2022-11-15T02:05:06;35.83;32.66;43.07;;
70077;Laerm;57448;51.490;5.436;2022-11-15T02:07:56;37.61;34.52;41.96;;
70077;Laerm;57448;51.490;5.436;2022-11-15T02:10:47;36.05;33.15;44.64;;
70077;Laerm;57448;51.490;5.436;2022-11-15T02:13:38;35.62;32.88;39.86;;
70077;Laerm;57448;51.490;5.436;2022-11-15T02:16:30;36.12;32.98;43.03;;
70077;Laerm;57448;51.490;5.436;2022-11-15T02:19:33;36.59;32.44;43.49;;
70077;Laerm;57448;51.490;5.436;2022-11-15T02:22:33;34.65;31.79;44.76;;
70077;Laerm;57448;51.490;5.436;2022-11-15T02:25:33;34.96;32.27;45.81;;
70077;Laerm;57448;51.490;5.436;2022-11-15T02:28:42;35.47;32.31;44.99;;
70077;Laerm;57448;51.490;5.436;2022-11-15T02:31:38;35.99;33.18;42.43;;
70077;Laerm;57448;51.490;5.436;2022-11-15T02:34:33;36.13;33.29;44.13;;
70077;Laerm;57448;51.490;5.436;2022-11-15T02:37:27;36.69;32.98;49.64;;
70077;Laerm;57448;51.490;5.436;2022-11-15T02:40:23;37.27;33.62;48.00;;
70077;Laerm;57448;51.490;5.436;2022-11-15T02:43:19;36.17;33.41;48.16;;
70077;Laerm;57448;51.490;5.436;2022-11-15T02:46:32;36.97;33.28;52.21;;
70077;Laerm;57448;51.490;5.436;2022-11-15T02:49:45;37.56;33.86;52.25;;
70077;Laerm;57448;51.490;5.436;2022-11-15T02:52:36;37.49;33.69;45.98;;
70077;Laerm;57448;51.490;5.436;2022-11-15T02:55:28;36.30;33.67;42.59;;
70077;Laerm;57448;51.490;5.436;2022-11-15T02:58:23;36.75;33.51;42.64;;
70077;Laerm;57448;51.490;5.436;2022-11-15T03:01:23;37.57;33.20;44.16;;
70077;Laerm;57448;51.490;5.436;2022-11-15T03:04:23;36.10;33.26;44.16;;
70077;Laerm;57448;51.490;5.436;2022-11-15T03:07:18;36.33;33.80;42.31;;
70077;Laerm;57448;51.490;5.436;2022-11-15T03:10:15;36.34;33.74;42.45;;
70077;Laerm;57448;51.490;5.436;2022-11-15T03:13:10;37.25;33.74;46.70;;
70077;Laerm;57448;51.490;5.436;2022-11-15T03:16:04;36.16;33.00;45.69;;
70077;Laerm;57448;51.490;5.436;2022-11-15T03:18:58;36.14;32.83;45.20;;
70077;Laerm;57448;51.490;5.436;2022-11-15T03:21:50;36.15;33.60;42.09;;
70077;Laerm;57448;51.490;5.436;2022-11-15T03:24:43;36.40;33.65;43.50;;
70077;Laerm;57448;51.490;5.436;2022-11-15T03:27:36;36.32;33.66;42.05;;
70077;Laerm;57448;51.490;5.436;2022-11-15T03:30:28;36.50;33.66;42.04;;
70077;Laerm;57448;51.490;5.436;2022-11-15T03:33:21;36.83;34.37;40.70;;
70077;Laerm;57448;51.490;5.436;2022-11-15T03:36:12;36.09;32.70;41.07;;
70077;Laerm;57448;51.490;5.436;2022-11-15T03:39:04;36.51;34.05;41.91;;
70077;Laerm;57448;51.490;5.436;2022-11-15T03:42:00;36.29;33.03;42.55;;
70077;Laerm;57448;51.490;5.436;2022-11-15T03:44:54;36.72;33.98;41.80;;
70077;Laerm;57448;51.490;5.436;2022-11-15T03:47:49;36.48;33.85;49.42;;
70077;Laerm;57448;51.490;5.436;2022-11-15T03:50:42;35.76;32.83;39.50;;
70077;Laerm;57448;51.490;5.436;2022-11-15T03:53:33;35.48;32.39;40.62;;
70077;Laerm;57448;51.490;5.436;2022-11-15T03:56:23;36.13;33.42;39.79;;
70077;Laerm;57448;51.490;5.436;2022-11-15T03:59:16;37.14;34.60;40.43;;
70077;Laerm;57448;51.490;5.436;2022-11-15T04:02:06;37.41;34.70;43.47;;
70077;Laerm;57448;51.490;5.436;2022-11-15T04:04:57;37.52;34.78;41.08;;
70077;Laerm;57448;51.490;5.436;2022-11-15T04:07:47;38.21;35.30;49.90;;
70077;Laerm;57448;51.490;5.436;2022-11-15T04:10:38;38.49;35.53;41.20;;
70077;Laerm;57448;51.490;5.436;2022-11-15T04:13:29;38.46;35.60;41.28;;
70077;Laerm;57448;51.490;5.436;2022-11-15T04:16:21;38.86;36.16;42.63;;
70077;Laerm;57448;51.490;5.436;2022-11-15T04:19:12;38.56;35.56;42.54;;
70077;Laerm;57448;51.490;5.436;2022-11-15T04:22:20;38.03;35.70;41.29;;
70077;Laerm;57448;51.490;5.436;2022-11-15T04:25:40;37.84;35.13;40.98;;
70077;Laerm;57448;51.490;5.436;2022-11-15T04:28:31;38.84;35.90;48.24;;
70077;Laerm;57448;51.490;5.436;2022-11-15T04:31:23;39.89;35.92;45.53;;
70077;Laerm;57448;51.490;5.436;2022-11-15T04:34:14;39.19;36.54;42.96;;
70077;Laerm;57448;51.490;5.436;2022-11-15T04:37:05;38.86;36.15;41.10;;
70077;Laerm;57448;51.490;5.436;2022-11-15T04:40:06;39.52;35.99;45.53;;
70077;Laerm;57448;51.490;5.436;2022-11-15T04:42:56;39.73;37.12;43.25;;
70077;Laerm;57448;51.490;5.436;2022-11-15T04:45:47;39.68;36.74;42.64;;
70077;Laerm;57448;51.490;5.436;2022-11-15T04:48:39;40.16;37.62;43.53;;
70077;Laerm;57448;51.490;5.436;2022-11-15T04:51:30;40.61;37.33;50.74;;
70077;Laerm;57448;51.490;5.436;2022-11-15T04:54:20;40.40;37.55;51.16;;
70077;Laerm;57448;51.490;5.436;2022-11-15T04:57:11;41.27;37.99;53.25;;
70077;Laerm;57448;51.490;5.436;2022-11-15T05:00:03;41.24;37.28;61.04;;
70077;Laerm;57448;51.490;5.436;2022-11-15T05:02:54;40.73;36.91;55.07;;
70077;Laerm;57448;51.490;5.436;2022-11-15T05:06:04;39.87;36.82;52.19;;
70077;Laerm;57448;51.490;5.436;2022-11-15T05:08:55;39.89;36.94;44.20;;
70077;Laerm;57448;51.490;5.436;2022-11-15T05:11:46;40.30;37.57;44.09;;
70077;Laerm;57448;51.490;5.436;2022-11-15T05:14:37;40.19;37.18;44.46;;
70077;Laerm;57448;51.490;5.436;2022-11-15T05:17:28;40.15;37.71;46.85;;
70077;Laerm;57448;51.490;5.436;2022-11-15T05:20:19;41.49;37.90;47.09;;
70077;Laerm;57448;51.490;5.436;2022-11-15T05:23:11;42.45;39.48;48.56;;
70077;Laerm;57448;51.490;5.436;2022-11-15T05:26:02;42.76;39.74;55.88;;
70077;Laerm;57448;51.490;5.436;2022-11-15T05:28:53;43.15;39.23;57.40;;
70077;Laerm;57448;51.490;5.436;2022-11-15T05:31:44;42.51;39.04;57.71;;
70077;Laerm;57448;51.490;5.436;2022-11-15T05:34:35;42.71;39.58;55.16;;
70077;Laerm;57448;51.490;5.436;2022-11-15T05:37:26;42.62;39.36;59.51;;
70077;Laerm;57448;51.490;5.436;2022-11-15T05:40:18;43.04;39.87;55.31;;
70077;Laerm;57448;51.490;5.436;2022-11-15T05:43:08;42.49;39.57;45.67;;
70077;Laerm;57448;51.490;5.436;2022-11-15T05:46:00;43.00;40.07;50.38;;
70077;Laerm;57448;51.490;5.436;2022-11-15T05:48:52;42.58;39.05;47.36;;
70077;Laerm;57448;51.490;5.436;2022-11-15T05:51:44;42.19;39.56;45.39;;
70077;Laerm;57448;51.490;5.436;2022-11-15T05:54:36;42.49;39.83;46.95;;
70077;Laerm;57448;51.490;5.436;2022-11-15T05:57:29;42.60;39.86;48.29;;
70077;Laerm;57448;51.490;5.436;2022-11-15T06:00:19;43.25;40.02;49.40;;
70077;Laerm;57448;51.490;5.436;2022-11-15T06:03:10;43.87;40.79;48.96;;
70077;Laerm;57448;51.490;5.436;2022-11-15T06:06:03;42.79;40.24;51.29;;
70077;Laerm;57448;51.490;5.436;2022-11-15T06:08:54;42.32;39.62;44.62;;
70077;Laerm;57448;51.490;5.436;2022-11-15T06:11:44;43.01;40.45;51.57;;
70077;Laerm;57448;51.490;5.436;2022-11-15T06:14:37;42.87;39.98;49.18;;
70077;Laerm;57448;51.490;5.436;2022-11-15T06:17:27;45.29;40.04;66.18;;
70077;Laerm;57448;51.490;5.436;2022-11-15T06:20:19;43.81;40.81;60.38;;
70077;Laerm;57448;51.490;5.436;2022-11-15T06:23:09;44.20;41.29;48.23;;
70077;Laerm;57448;51.490;5.436;2022-11-15T06:26:01;44.29;41.14;57.73;;
70077;Laerm;57448;51.490;5.436;2022-11-15T06:28:52;45.10;41.63;61.09;;
70077;Laerm;57448;51.490;5.436;2022-11-15T06:31:44;44.57;41.55;55.04;;
70077;Laerm;57448;51.490;5.436;2022-11-15T06:34:35;47.55;41.82;63.92;;
70077;Laerm;57448;51.490;5.436;2022-11-15T06:37:26;45.96;42.30;61.73;;
70077;Laerm;57448;51.490;5.436;2022-11-15T06:40:16;44.78;41.72;55.37;;
70077;Laerm;57448;51.490;5.436;2022-11-15T06:43:07;45.20;41.47;63.00;;
70077;Laerm;57448;51.490;5.436;2022-11-15T06:45:58;45.12;42.15;59.68;;
70077;Laerm;57448;51.490;5.436;2022-11-15T06:48:51;45.40;41.98;58.00;;
70077;Laerm;57448;51.490;5.436;2022-11-15T06:51:42;49.32;42.10;67.14;;
70077;Laerm;57448;51.490;5.436;2022-11-15T06:54:33;44.64;41.11;53.85;;
70077;Laerm;57448;51.490;5.436;2022-11-15T06:57:23;45.68;41.07;64.15;;
70077;Laerm;57448;51.490;5.436;2022-11-15T07:00:14;45.21;40.93;65.97;;
70077;Laerm;57448;51.490;5.436;2022-11-15T07:03:06;43.22;40.30;54.25;;
70077;Laerm;57448;51.490;5.436;2022-11-15T07:05:58;46.95;39.81;75.24;;
70077;Laerm;57448;51.490;5.436;2022-11-15T07:08:48;45.91;40.33;67.42;;
70077;Laerm;57448;51.490;5.436;2022-11-15T07:11:39;43.86;39.93;58.19;;
70077;Laerm;57448;51.490;5.436;2022-11-15T07:14:30;51.26;41.25;66.70;;
70077;Laerm;57448;51.490;5.436;2022-11-15T07:17:20;43.97;40.80;65.09;;
70077;Laerm;57448;51.490;5.436;2022-11-15T07:20:11;43.63;41.08;48.13;;
70077;Laerm;57448;51.490;5.436;2022-11-15T07:23:05;44.50;40.61;67.06;;
70077;Laerm;57448;51.490;5.436;2022-11-15T07:25:56;43.85;40.33;57.01;;
70077;Laerm;57448;51.490;5.436;2022-11-15T07:28:46;46.03;42.13;53.67;;
70077;Laerm;57448;51.490;5.436;2022-11-15T07:31:37;45.87;41.04;72.71;;
70077;Laerm;57448;51.490;5.436;2022-11-15T07:34:28;47.92;39.92;70.16;;
70077;Laerm;57448;51.490;5.436;2022-11-15T07:37:19;43.02;40.05;53.28;;
70077;Laerm;57448;51.490;5.436;2022-11-15T07:40:11;43.41;40.67;61.12;;
70077;Laerm;57448;51.490;5.436;2022-11-15T07:43:03;50.68;40.01;64.21;;
70077;Laerm;57448;51.490;5.436;2022-11-15T07:45:54;43.29;39.67;62.42;;
70077;Laerm;57448;51.490;5.436;2022-11-15T07:48:45;42.33;39.35;55.17;;
70077;Laerm;57448;51.490;5.436;2022-11-15T07:51:36;45.69;39.77;65.28;;
70077;Laerm;57448;51.490;5.436;2022-11-15T07:54:27;50.61;39.61;64.77;;
70077;Laerm;57448;51.490;5.436;2022-11-15T07:57:19;44.01;39.69;61.34;;
70077;Laerm;57448;51.490;5.436;2022-11-15T08:00:10;45.58;40.22;62.66;;
70077;Laerm;57448;51.490;5.436;2022-11-15T08:03:01;50.25;39.61;68.00;;
70077;Laerm;57448;51.490;5.436;2022-11-15T08:05:52;48.58;40.70;66.22;;
70077;Laerm;57448;51.490;5.436;2022-11-15T08:08:43;44.17;40.20;59.78;;
70077;Laerm;57448;51.490;5.436;2022-11-15T08:11:33;44.53;40.08;58.34;;
70077;Laerm;57448;51.490;5.436;2022-11-15T08:14:25;43.37;40.00;59.81;;
70077;Laerm;57448;51.490;5.436;2022-11-15T08:17:16;43.50;39.63;59.26;;
70077;Laerm;57448;51.490;5.436;2022-11-15T08:20:07;43.96;40.30;53.29;;
70077;Laerm;57448;51.490;5.436;2022-11-15T08:22:58;44.29;39.77;56.25;;
70077;Laerm;57448;51.490;5.436;2022-11-15T08:25:49;43.77;40.62;54.52;;
70077;Laerm;57448;51.490;5.436;2022-11-15T08:28:40;43.11;40.33;58.84;;
70077;Laerm;57448;51.490;5.436;2022-11-15T08:31:32;44.47;39.68;63.29;;
70077;Laerm;57448;51.490;5.436;2022-11-15T08:34:23;45.13;40.55;66.42;;
70077;Laerm;57448;51.490;5.436;2022-11-15T08:37:13;45.41;40.16;61.04;;
70077;Laerm;57448;51.490;5.436;2022-11-15T08:40:05;43.59;40.08;57.72;;
70077;Laerm;57448;51.490;5.436;2022-11-15T08:42:56;43.93;39.45;60.11;;
70077;Laerm;57448;51.490;5.436;2022-11-15T08:45:48;43.86;40.06;61.32;;
70077;Laerm;57448;51.490;5.436;2022-11-15T08:48:40;43.70;40.03;65.62;;
70077;Laerm;57448;51.490;5.436;2022-11-15T08:51:30;44.36;40.29;56.90;;
70077;Laerm;57448;51.490;5.436;2022-11-15T08:54:21;43.67;40.52;52.56;;
70077;Laerm;57448;51.490;5.436;2022-11-15T08:57:12;45.13;40.49;60.83;;
70077;Laerm;57448;51.490;5.436;2022-11-15T09:00:03;45.30;40.79;58.72;;
70077;Laerm;57448;51.490;5.436;2022-11-15T09:02:54;50.25;40.45;65.71;;
70077;Laerm;57448;51.490;5.436;2022-11-15T09:05:46;43.34;40.03;56.42;;
70077;Laerm;57448;51.490;5.436;2022-11-15T09:08:37;46.37;40.41;64.19;;
70077;Laerm;57448;51.490;5.436;2022-11-15T09:11:27;52.60;40.31;69.26;;
70077;Laerm;57448;51.490;5.436;2022-11-15T09:14:18;43.14;39.20;51.96;;
70077;Laerm;57448;51.490;5.436;2022-11-15T09:17:09;45.18;40.35;64.28;;
70077;Laerm;57448;51.490;5.436;2022-11-15T09:19:59;43.74;39.72;53.74;;
70077;Laerm;57448;51.490;5.436;2022-11-15T09:22:51;43.51;39.24;62.07;;
70077;Laerm;57448;51.490;5.436;2022-11-15T09:25:42;42.29;38.41;60.34;;
70077;Laerm;57448;51.490;5.436;2022-11-15T09:28:33;44.73;39.09;64.02;;
70077;Laerm;57448;51.490;5.436;2022-11-15T09:31:24;43.44;39.16;61.33;;
70077;Laerm;57448;51.490;5.436;2022-11-15T09:34:15;45.76;40.48;59.84;;
70077;Laerm;57448;51.490;5.436;2022-11-15T09:37:06;44.43;39.58;53.82;;
70077;Laerm;57448;51.490;5.436;2022-11-15T09:39:58;42.36;38.39;50.49;;
70077;Laerm;57448;51.490;5.436;2022-11-15T09:42:52;43.48;39.45;53.80;;
70077;Laerm;57448;51.490;5.436;2022-11-15T09:45:49;49.78;40.46;71.69;;
70077;Laerm;57448;51.490;5.436;2022-11-15T09:48:49;51.33;41.03;64.31;;
70077;Laerm;57448;51.490;5.436;2022-11-15T09:51:43;47.06;39.94;69.87;;
70077;Laerm;57448;51.490;5.436;2022-11-15T09:54:37;45.24;40.46;62.65;;
70077;Laerm;57448;51.490;5.436;2022-11-15T09:57:31;44.68;39.68;62.07;;
70077;Laerm;57448;51.490;5.436;2022-11-15T10:00:24;50.62;40.10;68.62;;
70077;Laerm;57448;51.490;5.436;2022-11-15T10:03:18;44.86;38.75;53.24;;
70077;Laerm;57448;51.490;5.436;2022-11-15T10:06:19;47.64;40.04;62.03;;
70077;Laerm;57448;51.490;5.436;2022-11-15T10:09:13;44.11;39.94;63.25;;
70077;Laerm;57448;51.490;5.436;2022-11-15T10:12:05;48.53;39.86;79.34;;
70077;Laerm;57448;51.490;5.436;2022-11-15T10:15:01;49.63;40.99;68.48;;
70077;Laerm;57448;51.490;5.436;2022-11-15T10:18:09;49.86;42.58;70.87;;
70077;Laerm;57448;51.490;5.436;2022-11-15T10:21:08;46.14;41.16;60.80;;
70077;Laerm;57448;51.490;5.436;2022-11-15T10:24:07;51.18;41.00;70.89;;
70077;Laerm;57448;51.490;5.436;2022-11-15T10:27:00;50.58;43.50;74.62;;
70077;Laerm;57448;51.490;5.436;2022-11-15T10:29:51;57.26;41.57;85.88;;
70077;Laerm;57448;51.490;5.436;2022-11-15T10:32:43;45.71;41.43;60.61;;
70077;Laerm;57448;51.490;5.436;2022-11-15T10:35:34;45.54;39.99;57.84;;
70077;Laerm;57448;51.490;5.436;2022-11-15T10:38:25;47.23;40.36;66.24;;
70077;Laerm;57448;51.490;5.436;2022-11-15T10:41:16;45.13;39.52;59.94;;
70077;Laerm;57448;51.490;5.436;2022-11-15T10:44:09;45.53;40.11;62.07;;
70077;Laerm;57448;51.490;5.436;2022-11-15T10:47:06;45.92;41.22;65.93;;
70077;Laerm;57448;51.490;5.436;2022-11-15T10:49:59;44.02;40.53;54.48;;
70077;Laerm;57448;51.490;5.436;2022-11-15T10:52:49;49.94;40.23;65.77;;
70077;Laerm;57448;51.490;5.436;2022-11-15T10:55:37;44.81;39.64;63.49;;
70077;Laerm;57448;51.490;5.436;2022-11-15T10:58:32;43.75;38.66;53.85;;
70077;Laerm;57448;51.490;5.436;2022-11-15T11:01:22;44.60;38.59;61.11;;
70077;Laerm;57448;51.490;5.436;2022-11-15T11:04:11;43.80;38.94;57.60;;
70077;Laerm;57448;51.490;5.436;2022-11-15T11:07:02;44.62;38.69;60.98;;
70077;Laerm;57448;51.490;5.436;2022-11-15T11:09:56;54.53;39.94;75.93;;
70077;Laerm;57448;51.490;5.436;2022-11-15T11:12:46;50.96;39.14;68.15;;
70077;Laerm;57448;51.490;5.436;2022-11-15T11:15:35;45.71;40.01;66.52;;
70077;Laerm;57448;51.490;5.436;2022-11-15T11:18:25;43.66;39.05;54.15;;
70077;Laerm;57448;51.490;5.436;2022-11-15T11:21:17;46.88;43.77;59.46;;
70077;Laerm;57448;51.490;5.436;2022-11-15T11:24:13;46.07;43.33;51.75;;
70077;Laerm;57448;51.490;5.436;2022-11-15T11:27:08;46.19;41.84;52.40;;
70077;Laerm;57448;51.490;5.436;2022-11-15T11:30:09;48.35;43.01;68.09;;
70077;Laerm;57448;51.490;5.436;2022-11-15T11:33:02;46.34;43.39;50.29;;
70077;Laerm;57448;51.490;5.436;2022-11-15T11:36:01;45.08;39.51;51.78;;
70077;Laerm;57448;51.490;5.436;2022-11-15T11:38:56;42.53;37.85;55.19;;
70077;Laerm;57448;51.490;5.436;2022-11-15T11:41:51;41.98;37.44;57.79;;
70077;Laerm;57448;51.490;5.436;2022-11-15T11:44:44;42.85;38.54;49.84;;
70077;Laerm;57448;51.490;5.436;2022-11-15T11:47:39;44.68;39.35;56.01;;
70077;Laerm;57448;51.490;5.436;2022-11-15T11:50:28;44.23;40.43;60.90;;
70077;Laerm;57448;51.490;5.436;2022-11-15T11:53:21;43.67;39.80;52.28;;
70077;Laerm;57448;51.490;5.436;2022-11-15T11:56:15;43.57;37.70;54.64;;
70077;Laerm;57448;51.490;5.436;2022-11-15T11:59:10;51.39;38.31;65.84;;
70077;Laerm;57448;51.490;5.436;2022-11-15T12:02:01;42.20;37.44;59.96;;
70077;Laerm;57448;51.490;5.436;2022-11-15T12:04:59;43.40;38.43;53.18;;
70077;Laerm;57448;51.490;5.436;2022-11-15T12:07:50;43.61;38.36;58.84;;
70077;Laerm;57448;51.490;5.436;2022-11-15T12:10:43;42.01;37.86;61.90;;
70077;Laerm;57448;51.490;5.436;2022-11-15T12:13:34;43.27;38.24;51.38;;
70077;Laerm;57448;51.490;5.436;2022-11-15T12:16:26;41.33;37.99;51.91;;
70077;Laerm;57448;51.490;5.436;2022-11-15T12:19:15;42.68;37.57;67.60;;
70077;Laerm;57448;51.490;5.436;2022-11-15T12:22:05;51.44;38.66;66.58;;
70077;Laerm;57448;51.490;5.436;2022-11-15T12:24:56;41.65;36.49;56.24;;
70077;Laerm;57448;51.490;5.436;2022-11-15T12:27:49;44.21;36.73;63.79;;
70077;Laerm;57448;51.490;5.436;2022-11-15T12:30:42;43.28;37.19;72.21;;
70077;Laerm;57448;51.490;5.436;2022-11-15T12:33:36;42.39;38.27;55.64;;
70077;Laerm;57448;51.490;5.436;2022-11-15T12:36:30;49.39;39.34;65.08;;
70077;Laerm;57448;51.490;5.436;2022-11-15T12:40:02;50.66;39.04;71.27;;
70077;Laerm;57448;51.490;5.436;2022-11-15T12:45:53;43.75;38.02;72.32;;
70077;Laerm;57448;51.490;5.436;2022-11-15T12:48:53;43.42;37.94;60.56;;
70077;Laerm;57448;51.490;5.436;2022-11-15T12:55:00;41.00;37.95;47.94;;
70077;Laerm;57448;51.490;5.436;2022-11-15T12:57:52;41.45;37.92;60.02;;
70077;Laerm;57448;51.490;5.436;2022-11-15T13:00:41;41.72;38.33;58.37;;
70077;Laerm;57448;51.490;5.436;2022-11-15T13:03:31;43.48;38.84;58.70;;
70077;Laerm;57448;51.490;5.436;2022-11-15T13:06:34;42.94;39.64;62.13;;
70077;Laerm;57448;51.490;5.436;2022-11-15T13:12:50;41.76;37.94;53.10;;
70077;Laerm;57448;51.490;5.436;2022-11-15T13:18:44;41.90;38.26;53.14;;
70077;Laerm;57448;51.490;5.436;2022-11-15T13:21:48;43.14;39.25;49.81;;
70077;Laerm;57448;51.490;5.436;2022-11-15T13:24:55;41.97;37.83;51.65;;
70077;Laerm;57448;51.490;5.436;2022-11-15T13:27:44;42.30;38.62;52.79;;
70077;Laerm;57448;51.490;5.436;2022-11-15T13:30:33;41.98;38.70;46.70;;
70077;Laerm;57448;51.490;5.436;2022-11-15T13:33:27;41.89;38.23;57.78;;
70077;Laerm;57448;51.490;5.436;2022-11-15T13:36:19;42.04;37.93;62.92;;
70077;Laerm;57448;51.490;5.436;2022-11-15T13:39:14;44.31;40.02;66.90;;
70077;Laerm;57448;51.490;5.436;2022-11-15T13:42:13;44.88;39.64;53.49;;
70077;Laerm;57448;51.490;5.436;2022-11-15T13:45:04;42.09;38.77;48.97;;
70077;Laerm;57448;51.490;5.436;2022-11-15T13:47:56;41.83;38.45;54.43;;
70077;Laerm;57448;51.490;5.436;2022-11-15T13:50:46;41.54;37.89;55.91;;
70077;Laerm;57448;51.490;5.436;2022-11-15T13:53:35;45.69;37.72;69.18;;
70077;Laerm;57448;51.490;5.436;2022-11-15T13:56:27;41.45;36.96;55.43;;
70077;Laerm;57448;51.490;5.436;2022-11-15T13:59:19;41.99;38.97;47.78;;
70077;Laerm;57448;51.490;5.436;2022-11-15T14:02:13;42.69;39.08;56.57;;
70077;Laerm;57448;51.490;5.436;2022-11-15T14:05:05;41.96;38.76;54.59;;
70077;Laerm;57448;51.490;5.436;2022-11-15T14:08:01;42.45;38.69;58.33;;
70077;Laerm;57448;51.490;5.436;2022-11-15T14:11:05;50.39;39.20;65.51;;
70077;Laerm;57448;51.490;5.436;2022-11-15T14:14:14;42.19;39.04;52.21;;
70077;Laerm;57448;51.490;5.436;2022-11-15T14:17:03;43.11;39.51;59.52;;
70077;Laerm;57448;51.490;5.436;2022-11-15T14:19:52;43.30;39.07;60.97;;
70077;Laerm;57448;51.490;5.436;2022-11-15T14:22:50;42.52;39.27;54.17;;
70077;Laerm;57448;51.490;5.436;2022-11-15T14:25:39;43.35;39.61;65.34;;
70077;Laerm;57448;51.490;5.436;2022-11-15T14:28:29;42.23;39.42;56.66;;
70077;Laerm;57448;51.490;5.436;2022-11-15T14:31:21;42.38;39.47;59.73;;
70077;Laerm;57448;51.490;5.436;2022-11-15T14:34:10;41.94;38.89;56.75;;
70077;Laerm;57448;51.490;5.436;2022-11-15T14:36:59;45.88;39.36;64.43;;
70077;Laerm;57448;51.490;5.436;2022-11-15T14:39:48;50.03;39.97;64.31;;
70077;Laerm;57448;51.490;5.436;2022-11-15T14:42:36;43.84;40.25;54.26;;
70077;Laerm;57448;51.490;5.436;2022-11-15T14:45:26;42.59;39.28;56.42;;
70077;Laerm;57448;51.490;5.436;2022-11-15T14:48:17;49.60;39.65;76.57;;
70077;Laerm;57448;51.490;5.436;2022-11-15T14:51:09;46.32;39.74;78.07;;
70077;Laerm;57448;51.490;5.436;2022-11-15T14:53:58;44.85;39.84;54.67;;
70077;Laerm;57448;51.490;5.436;2022-11-15T14:56:47;44.48;39.54;67.92;;
70077;Laerm;57448;51.490;5.436;2022-11-15T14:59:36;48.67;40.05;74.50;;
70077;Laerm;57448;51.490;5.436;2022-11-15T15:02:25;44.52;40.09;71.88;;
70077;Laerm;57448;51.490;5.436;2022-11-15T15:05:17;43.39;40.15;56.84;;
70077;Laerm;57448;51.490;5.436;2022-11-15T15:08:07;43.33;40.30;57.16;;
70077;Laerm;57448;51.490;5.436;2022-11-15T15:10:59;52.17;41.11;67.46;;
70077;Laerm;57448;51.490;5.436;2022-11-15T15:13:48;43.55;40.87;56.38;;
70077;Laerm;57448;51.490;5.436;2022-11-15T15:16:37;43.45;40.36;55.13;;
70077;Laerm;57448;51.490;5.436;2022-11-15T15:19:26;43.43;40.66;50.74;;
70077;Laerm;57448;51.490;5.436;2022-11-15T15:22:17;43.34;40.65;48.84;;
70077;Laerm;57448;51.490;5.436;2022-11-15T15:25:19;44.89;40.52;67.69;;
70077;Laerm;57448;51.490;5.436;2022-11-15T15:28:09;43.10;40.31;50.42;;
70077;Laerm;57448;51.490;5.436;2022-11-15T15:30:58;43.60;40.07;51.61;;
70077;Laerm;57448;51.490;5.436;2022-11-15T15:33:47;43.75;40.07;54.10;;
70077;Laerm;57448;51.490;5.436;2022-11-15T15:36:35;43.15;40.30;57.47;;
70077;Laerm;57448;51.490;5.436;2022-11-15T15:39:26;43.23;40.01;60.70;;
70077;Laerm;57448;51.490;5.436;2022-11-15T15:42:14;43.32;40.48;57.34;;
70077;Laerm;57448;51.490;5.436;2022-11-15T15:45:04;46.05;40.19;65.17;;
70077;Laerm;57448;51.490;5.436;2022-11-15T15:47:52;43.03;39.98;50.16;;
70077;Laerm;57448;51.490;5.436;2022-11-15T15:50:42;43.42;40.01;57.35;;
70077;Laerm;57448;51.490;5.436;2022-11-15T15:53:31;43.37;40.17;54.42;;
70077;Laerm;57448;51.490;5.436;2022-11-15T15:56:22;43.31;39.67;60.78;;
70077;Laerm;57448;51.490;5.436;2022-11-15T15:59:11;44.08;39.84;55.40;;
70077;Laerm;57448;51.490;5.436;2022-11-15T16:01:59;50.31;40.64;63.91;;
70077;Laerm;57448;51.490;5.436;2022-11-15T16:04:48;43.53;40.09;63.08;;
70077;Laerm;57448;51.490;5.436;2022-11-15T16:07:37;46.91;40.61;69.16;;
70077;Laerm;57448;51.490;5.436;2022-11-15T16:10:28;43.43;39.89;61.17;;
70077;Laerm;57448;51.490;5.436;2022-11-15T16:13:18;44.17;40.27;68.53;;
70077;Laerm;57448;51.490;5.436;2022-11-15T16:16:07;43.21;40.83;57.87;;
70077;Laerm;57448;51.490;5.436;2022-11-15T16:18:57;42.97;40.54;46.49;;